createdAt,value
2022-09-10T00:00:55.004Z,8.93
2022-09-10T00:03:23.373Z,9.13
2022-09-10T00:05:51.931Z,12.77
2022-09-10T00:08:21.023Z,11.97
2022-09-10T00:10:51.994Z,9.27
2022-09-10T00:13:21.182Z,13.30
2022-09-10T00:15:52.063Z,8.53
2022-09-10T00:18:22.141Z,5.13
2022-09-10T00:20:51.704Z,9.83
2022-09-10T00:23:21.255Z,12.60
2022-09-10T00:25:52.062Z,11.93
2022-09-10T00:28:20.444Z,12.33
2022-09-10T00:30:49.992Z,13.00
2022-09-10T00:33:19.460Z,16.70
2022-09-10T00:35:48.064Z,20.20
2022-09-10T00:38:18.321Z,18.50
2022-09-10T00:40:47.143Z,15.43
2022-09-10T00:43:18.738Z,17.43
2022-09-10T00:45:49.679Z,21.13
2022-09-10T00:48:19.662Z,19.10
2022-09-10T00:50:50.015Z,17.43
2022-09-10T00:53:20.951Z,19.57
2022-09-10T00:55:51.169Z,8.07
2022-09-10T00:58:22.478Z,19.93
2022-09-10T01:00:50.860Z,13.47
2022-09-10T01:03:22.433Z,11.53
2022-09-10T01:05:53.351Z,13.00
2022-09-10T01:08:21.691Z,17.50
2022-09-10T01:10:55.382Z,11.03
2022-09-10T01:13:33.711Z,14.77
2022-09-10T01:16:08.820Z,4.53
2022-09-10T01:18:42.697Z,10.50
2022-09-10T01:21:14.236Z,9.20
2022-09-10T01:24:08.453Z,4.63
2022-09-10T01:26:50.091Z,1.57
2022-09-10T01:29:22.829Z,6.30
2022-09-10T01:31:53.518Z,8.30
2022-09-10T01:34:24.059Z,7.17
2022-09-10T01:36:55.522Z,0.33
2022-09-10T01:39:25.335Z,6.00
2022-09-10T01:41:55.150Z,0.67
2022-09-10T01:44:42.130Z,0.30
2022-09-10T01:47:15.428Z,2.20
2022-09-10T01:49:49.635Z,1.70
2022-09-10T01:52:25.564Z,1.03
2022-09-10T01:55:01.180Z,0.40
2022-09-10T01:57:34.090Z,1.83
2022-09-10T02:00:07.156Z,3.77
2022-09-10T02:02:39.210Z,0.40
2022-09-10T02:05:08.573Z,2.67
2022-09-10T02:07:37.769Z,6.87
2022-09-10T02:10:06.649Z,6.97
2022-09-10T02:12:36.384Z,7.00
2022-09-10T02:15:05.116Z,5.00
2022-09-10T02:17:35.099Z,0.40
2022-09-10T02:20:06.491Z,8.00
2022-09-10T02:22:36.422Z,5.80
2022-09-10T02:25:04.812Z,2.53
2022-09-10T02:27:33.339Z,0.40
2022-09-10T02:30:01.641Z,0.40
2022-09-10T02:32:30.046Z,4.10
2022-09-10T02:34:58.656Z,2.93
2022-09-10T02:37:28.350Z,1.53
2022-09-10T02:39:56.792Z,4.10
2022-09-10T02:42:26.351Z,3.33
2022-09-10T02:44:54.667Z,24.17
2022-09-10T02:47:23.096Z,1.90
2022-09-10T02:49:51.431Z,1.37
2022-09-10T02:52:19.861Z,2.27
2022-09-10T02:54:50.362Z,3.97
2022-09-10T02:57:18.684Z,5.07
2022-09-10T02:59:46.990Z,2.53
2022-09-10T03:02:15.471Z,2.20
2022-09-10T03:04:43.774Z,3.97
2022-09-10T03:07:12.180Z,6.27
2022-09-10T03:09:41.084Z,8.43
2022-09-10T03:12:10.779Z,8.57
2022-09-10T03:14:39.164Z,2.27
2022-09-10T03:17:07.568Z,3.57
2022-09-10T03:19:35.876Z,0.93
2022-09-10T03:22:04.216Z,1.60
2022-09-10T03:24:32.540Z,4.90
2022-09-10T03:27:01.145Z,3.60
2022-09-10T03:29:30.958Z,5.20
2022-09-10T03:31:59.264Z,6.03
2022-09-10T03:34:27.676Z,5.10
2022-09-10T03:36:56.113Z,5.60
2022-09-10T03:39:24.887Z,0.60
2022-09-10T03:41:53.216Z,2.73
2022-09-10T03:44:21.529Z,6.53
2022-09-10T03:46:52.010Z,3.20
2022-09-10T03:49:20.303Z,3.67
2022-09-10T03:51:48.786Z,0.63
2022-09-10T03:54:17.128Z,1.10
2022-09-10T03:56:45.472Z,4.37
2022-09-10T03:59:14.859Z,2.07
2022-09-10T04:01:43.691Z,5.20
2022-09-10T04:04:14.870Z,4.57
2022-09-10T04:06:44.544Z,3.53
2022-09-10T04:09:13.172Z,2.80
2022-09-10T04:11:41.575Z,4.63
2022-09-10T04:14:10.047Z,4.07
2022-09-10T04:16:38.389Z,3.40
2022-09-10T04:19:06.689Z,5.37
2022-09-10T04:21:36.382Z,3.43
2022-09-10T04:24:05.172Z,5.63
2022-09-10T04:26:33.474Z,2.90
2022-09-10T04:29:01.842Z,1.03
2022-09-10T04:31:30.193Z,2.97
2022-09-10T04:34:01.418Z,4.17
2022-09-10T04:36:30.245Z,4.03
2022-09-10T04:39:00.118Z,4.67
2022-09-10T04:41:28.406Z,1.17
2022-09-10T04:43:56.737Z,1.93
2022-09-10T04:46:25.118Z,1.13
2022-09-10T04:48:54.248Z,1.13
2022-09-10T04:51:22.614Z,4.67
2022-09-10T04:53:50.965Z,0.30
2022-09-10T04:56:21.106Z,0.73
2022-09-10T04:58:49.723Z,1.40
2022-09-10T05:01:18.180Z,6.37
2022-09-10T05:03:46.646Z,0.60
2022-09-10T05:06:15.036Z,0.67
2022-09-10T05:08:43.354Z,1.30
2022-09-10T05:11:11.672Z,4.27
2022-09-10T05:13:42.248Z,7.00
2022-09-10T05:16:10.633Z,8.13
2022-09-10T05:18:39.459Z,3.53
2022-09-10T05:21:08.204Z,1.23
2022-09-10T05:23:41.736Z,8.53
2022-09-10T05:26:10.923Z,11.43
2022-09-10T05:28:40.655Z,4.13
2022-09-10T05:31:09.751Z,0.73
2022-09-10T05:33:40.771Z,5.53
2022-09-10T05:36:10.798Z,1.90
2022-09-10T05:38:40.116Z,1.00
2022-09-10T05:41:11.497Z,3.30
2022-09-10T05:43:42.002Z,5.97
2022-09-10T05:46:10.430Z,1.57
2022-09-10T05:48:41.599Z,0.70
2022-09-10T05:51:10.342Z,2.60
2022-09-10T05:53:39.034Z,3.00
2022-09-10T05:56:07.646Z,1.40
2022-09-10T05:58:35.995Z,3.87
2022-09-10T06:01:05.717Z,5.20
2022-09-10T06:03:34.231Z,3.93
2022-09-10T06:06:02.715Z,4.07
2022-09-10T06:08:31.359Z,6.17
2022-09-10T06:11:00.558Z,3.87
2022-09-10T06:13:28.871Z,0.80
2022-09-10T06:15:57.522Z,1.23
2022-09-10T06:18:27.257Z,1.17
2022-09-10T06:21:03.022Z,2.73
2022-09-10T06:23:31.482Z,0.40
2022-09-10T06:26:04.347Z,3.47
2022-09-10T06:28:33.645Z,4.60
2022-09-10T06:31:04.380Z,1.43
2022-09-10T06:33:34.734Z,3.77
2022-09-10T06:36:03.692Z,3.70
2022-09-10T06:38:33.601Z,6.27
2022-09-10T06:41:02.782Z,4.67
2022-09-10T06:43:36.261Z,4.10
2022-09-10T06:46:06.253Z,2.87
2022-09-10T06:48:43.285Z,3.47
2022-09-10T06:51:14.918Z,4.53
2022-09-10T06:53:43.862Z,8.43
2022-09-10T06:56:13.244Z,4.67
2022-09-10T06:58:41.685Z,1.40
2022-09-10T07:01:13.664Z,6.13
2022-09-10T07:03:43.985Z,4.43
2022-09-10T07:06:14.009Z,6.30
2022-09-10T07:08:42.583Z,5.97
2022-09-10T07:11:12.783Z,4.73
2022-09-10T07:13:41.345Z,3.67
2022-09-10T07:16:10.151Z,4.50
2022-09-10T07:18:38.835Z,4.83
2022-09-10T07:21:12.852Z,7.37
2022-09-10T07:23:41.503Z,3.77
2022-09-10T07:26:11.438Z,3.87
2022-09-10T07:28:40.365Z,2.77
2022-09-10T07:31:16.662Z,5.17
2022-09-10T07:33:45.198Z,3.47
2022-09-10T07:36:15.841Z,1.07
2022-09-10T07:38:44.152Z,0.93
2022-09-10T07:41:13.991Z,6.17
2022-09-10T07:43:42.805Z,1.73
2022-09-10T07:46:13.283Z,5.67
2022-09-10T07:48:41.791Z,9.33
2022-09-10T07:51:11.795Z,4.63
2022-09-10T07:53:49.984Z,2.13
2022-09-10T07:56:18.707Z,1.73
2022-09-10T07:58:47.238Z,3.03
2022-09-10T08:01:15.756Z,3.20
2022-09-10T08:03:44.990Z,4.07
2022-09-10T08:06:13.613Z,3.30
2022-09-10T08:08:43.805Z,3.90
2022-09-10T08:11:13.529Z,2.47
2022-09-10T08:13:42.293Z,7.30
2022-09-10T08:16:12.195Z,3.97
2022-09-10T08:18:41.065Z,3.60
2022-09-10T08:21:10.733Z,5.53
2022-09-10T08:23:39.628Z,3.23
2022-09-10T08:26:09.804Z,3.10
2022-09-10T08:28:38.797Z,4.40
2022-09-10T08:31:08.656Z,1.97
2022-09-10T08:33:38.228Z,5.27
2022-09-10T08:36:08.000Z,1.70
2022-09-10T08:38:37.117Z,4.07
2022-09-10T08:41:13.242Z,4.53
2022-09-10T08:43:44.478Z,2.07
2022-09-10T08:46:16.708Z,4.90
2022-09-10T08:48:45.892Z,4.57
2022-09-10T08:51:16.944Z,2.47
2022-09-10T08:53:47.995Z,3.47
2022-09-10T08:56:18.734Z,4.90
2022-09-10T08:58:48.897Z,4.10
2022-09-10T09:01:23.753Z,5.40
2022-09-10T09:03:53.290Z,2.10
2022-09-10T09:06:26.092Z,3.67
2022-09-10T09:08:55.163Z,1.33
2022-09-10T09:11:27.697Z,3.47
2022-09-10T09:13:59.519Z,4.07
2022-09-10T09:16:33.733Z,7.33
2022-09-10T09:19:15.774Z,5.93
2022-09-10T09:21:52.603Z,2.00
2022-09-10T09:24:25.564Z,3.67
2022-09-10T09:26:57.422Z,2.40
2022-09-10T09:29:27.376Z,1.53
2022-09-10T09:31:59.646Z,6.73
2022-09-10T09:34:33.205Z,2.83
2022-09-10T09:37:04.069Z,2.73
2022-09-10T09:39:35.091Z,4.17
2022-09-10T09:42:07.166Z,5.07
2022-09-10T09:44:38.843Z,4.80
2022-09-10T09:47:07.123Z,5.10
2022-09-10T09:49:35.476Z,4.27
2022-09-10T09:52:04.894Z,5.20
2022-09-10T09:55:03.072Z,3.67
2022-09-10T09:57:24.475Z,5.33
2022-09-10T09:59:52.858Z,3.73
2022-09-10T10:02:22.455Z,4.93
2022-09-10T10:05:00.414Z,3.73
2022-09-10T10:07:31.576Z,4.07
2022-09-10T10:10:01.440Z,5.17
2022-09-10T10:12:33.222Z,3.70
2022-09-10T10:15:02.753Z,3.43
2022-09-10T10:17:38.328Z,3.70
2022-09-10T10:20:08.871Z,3.00
2022-09-10T10:22:37.657Z,2.73
2022-09-10T10:25:07.574Z,2.73
2022-09-10T10:27:38.599Z,1.57
2022-09-10T10:30:14.806Z,5.33
2022-09-10T10:32:45.141Z,1.23
2022-09-10T10:35:44.185Z,3.87
2022-09-10T10:38:36.608Z,1.43
2022-09-10T10:41:11.913Z,1.93
2022-09-10T10:43:48.654Z,2.33
2022-09-10T10:46:19.269Z,12.80
2022-09-10T10:48:58.318Z,1.70
2022-09-10T10:51:33.335Z,2.50
2022-09-10T10:54:08.198Z,0.97
2022-09-10T10:56:38.935Z,1.63
2022-09-10T10:59:17.986Z,1.23
2022-09-10T11:01:48.859Z,2.10
2022-09-10T11:04:25.256Z,1.70
2022-09-10T11:06:57.645Z,1.40
2022-09-10T11:09:28.100Z,1.40
2022-09-10T11:11:58.174Z,2.63
2022-09-10T11:14:30.960Z,1.40
2022-09-10T11:17:01.982Z,1.80
2022-09-10T11:19:35.771Z,3.30
2022-09-10T11:22:06.631Z,2.33
2022-09-10T11:24:36.425Z,0.83
2022-09-10T11:27:07.183Z,3.20
2022-09-10T11:29:42.038Z,1.10
2022-09-10T11:32:14.939Z,1.83
2022-09-10T11:34:48.388Z,5.37
2022-09-10T11:37:19.972Z,1.50
2022-09-10T11:39:50.126Z,0.90
2022-09-10T11:42:20.888Z,2.37
2022-09-10T11:44:55.340Z,1.43
2022-09-10T11:47:26.232Z,0.90
2022-09-10T11:49:58.237Z,1.30
2022-09-10T11:52:27.191Z,1.00
2022-09-10T11:54:56.052Z,0.60
2022-09-10T11:57:29.686Z,2.80
2022-09-10T12:00:06.740Z,1.70
2022-09-10T12:02:52.273Z,1.30
2022-09-10T12:05:25.136Z,0.57
2022-09-10T12:07:58.116Z,1.57
2022-09-10T12:10:32.333Z,2.00
2022-09-10T12:13:01.038Z,0.57
2022-09-10T12:15:33.970Z,1.97
2022-09-10T12:18:04.382Z,1.17
2022-09-10T12:20:34.211Z,1.20
2022-09-10T12:23:02.920Z,1.17
2022-09-10T12:25:34.640Z,0.80
2022-09-10T12:28:05.473Z,2.27
2022-09-10T12:31:00.969Z,0.83
2022-09-10T12:33:59.408Z,2.77
2022-09-10T12:36:46.246Z,1.20
2022-09-10T12:39:23.523Z,1.13
2022-09-10T12:41:59.638Z,1.07
2022-09-10T12:44:29.467Z,2.70
2022-09-10T12:47:13.524Z,2.00
2022-09-10T12:49:46.785Z,0.70
2022-09-10T12:52:16.913Z,0.80
2022-09-10T12:54:52.601Z,1.90
2022-09-10T12:57:39.198Z,3.97
2022-09-10T13:00:25.784Z,1.27
2022-09-10T13:02:58.756Z,1.73
2022-09-10T13:05:32.045Z,1.60
2022-09-10T13:08:11.694Z,0.97
2022-09-10T13:10:42.611Z,1.30
2022-09-10T13:13:25.744Z,1.60
2022-09-10T13:15:55.120Z,2.33
2022-09-10T13:18:25.469Z,0.60
2022-09-10T13:20:53.835Z,1.20
2022-09-10T13:23:23.484Z,1.67
2022-09-10T13:25:53.637Z,2.00
2022-09-10T13:28:42.960Z,3.90
2022-09-10T13:31:13.553Z,1.20
2022-09-10T13:33:49.148Z,1.40
2022-09-10T13:36:25.412Z,1.20
2022-09-10T13:39:12.279Z,0.70
2022-09-10T13:41:56.584Z,2.00
2022-09-10T13:44:35.126Z,1.80
2022-09-10T13:47:06.514Z,1.77
2022-09-10T13:49:37.992Z,1.00
2022-09-10T13:52:07.609Z,1.27
2022-09-10T13:54:36.860Z,0.70
2022-09-10T13:57:12.858Z,1.87
2022-09-10T13:59:42.565Z,3.10
2022-09-10T14:02:10.968Z,2.40
2022-09-10T14:04:44.778Z,7.03
2022-09-10T14:07:16.082Z,2.20
2022-09-10T14:09:45.949Z,1.53
2022-09-10T14:12:16.454Z,2.07
2022-09-10T14:14:46.127Z,0.93
2022-09-10T14:17:17.879Z,1.57
2022-09-10T14:19:49.327Z,4.47
2022-09-10T14:22:22.125Z,4.63
2022-09-10T14:24:52.469Z,1.33
2022-09-10T14:27:24.909Z,5.73
2022-09-10T14:29:56.223Z,1.53
2022-09-10T14:32:28.880Z,2.33
2022-09-10T14:34:57.304Z,3.30
2022-09-10T14:37:27.233Z,1.10
2022-09-10T14:39:56.546Z,1.63
2022-09-10T14:42:27.992Z,0.93
2022-09-10T14:44:56.382Z,2.33
2022-09-10T14:47:29.723Z,1.60
2022-09-10T14:50:12.903Z,1.00
2022-09-10T14:52:41.206Z,0.90
2022-09-10T14:55:10.208Z,2.23
2022-09-10T14:57:41.278Z,1.90
2022-09-10T15:00:12.985Z,1.33
2022-09-10T15:02:42.571Z,4.47
2022-09-10T15:05:15.202Z,1.23
2022-09-10T15:07:43.905Z,3.77
2022-09-10T15:10:13.028Z,1.87
2022-09-10T15:12:45.074Z,1.10
2022-09-10T15:15:17.503Z,2.00
2022-09-10T15:17:46.008Z,1.03
2022-09-10T15:20:17.068Z,1.30
2022-09-10T15:22:45.579Z,1.30
2022-09-10T15:25:23.257Z,2.40
2022-09-10T15:27:52.920Z,5.67
2022-09-10T15:30:23.084Z,1.80
2022-09-10T15:32:54.329Z,2.07
2022-09-10T15:35:23.296Z,1.60
2022-09-10T15:37:52.081Z,2.43
2022-09-10T15:40:20.451Z,1.07
2022-09-10T15:42:49.425Z,2.63
2022-09-10T15:45:19.230Z,3.00
2022-09-10T15:47:47.656Z,1.63
2022-09-10T15:50:16.246Z,2.80
2022-09-10T15:52:45.026Z,1.57
2022-09-10T15:55:14.022Z,1.57
2022-09-10T15:57:42.508Z,2.40
2022-09-10T16:00:11.906Z,4.70
2022-09-10T16:02:42.158Z,0.60
2022-09-10T16:05:11.065Z,2.17
2022-09-10T16:07:39.390Z,1.67
2022-09-10T16:10:08.100Z,1.50
2022-09-10T16:12:36.480Z,4.27
2022-09-10T16:15:04.859Z,2.43
2022-09-10T16:17:33.292Z,5.13
2022-09-10T16:20:03.331Z,0.80
2022-09-10T16:22:32.639Z,1.80
2022-09-10T16:25:01.076Z,1.23
2022-09-10T16:27:29.524Z,0.87
2022-09-10T16:29:57.826Z,1.73
2022-09-10T16:32:26.283Z,3.63
2022-09-10T16:34:55.515Z,5.90
2022-09-10T16:37:26.237Z,4.23
2022-09-10T16:39:55.377Z,4.73
2022-09-10T16:42:24.017Z,3.83
2022-09-10T16:44:52.372Z,2.40
2022-09-10T16:47:20.739Z,2.57
2022-09-10T16:49:49.092Z,1.67
2022-09-10T16:52:17.583Z,3.50
2022-09-10T16:54:47.295Z,1.03
2022-09-10T16:57:15.617Z,1.47
2022-09-10T16:59:43.927Z,3.43
2022-09-10T17:02:12.252Z,1.70
2022-09-10T17:04:40.539Z,0.57
2022-09-10T17:07:09.602Z,1.20
2022-09-10T17:09:37.922Z,6.67
2022-09-10T17:12:08.822Z,2.47
2022-09-10T17:14:39.378Z,1.30
2022-09-10T17:17:07.729Z,2.90
2022-09-10T17:19:36.040Z,1.77
2022-09-10T17:22:04.570Z,2.37
2022-09-10T17:24:32.901Z,1.07
2022-09-10T17:27:02.565Z,1.30
2022-09-10T17:29:32.954Z,4.07
2022-09-10T17:32:01.372Z,0.90
2022-09-10T17:34:29.710Z,1.40
2022-09-10T17:36:58.165Z,1.10
2022-09-10T17:39:28.364Z,1.63
2022-09-10T17:41:57.065Z,1.63
2022-09-10T17:44:25.752Z,2.23
2022-09-10T17:46:56.235Z,1.50
2022-09-10T17:49:24.994Z,3.80
2022-09-10T17:51:54.307Z,1.23
2022-09-10T17:54:23.439Z,4.00
2022-09-10T17:56:51.793Z,1.70
2022-09-10T17:59:21.881Z,1.73
2022-09-10T18:01:50.354Z,1.53
2022-09-10T18:04:21.759Z,0.90
2022-09-10T18:06:52.383Z,0.43
2022-09-10T18:09:22.001Z,2.23
2022-09-10T18:11:50.395Z,2.20
2022-09-10T18:14:21.501Z,0.43
2022-09-10T18:16:51.093Z,2.20
2022-09-10T18:19:20.783Z,1.93
2022-09-10T18:21:51.011Z,3.77
2022-09-10T18:24:22.419Z,0.70
2022-09-10T18:26:51.750Z,0.30
2022-09-10T18:29:21.310Z,0.93
2022-09-10T18:31:51.292Z,2.13
2022-09-10T18:34:23.271Z,1.53
2022-09-10T18:36:54.533Z,5.73
2022-09-10T18:39:23.810Z,2.27
2022-09-10T18:41:52.718Z,0.53
2022-09-10T18:44:21.936Z,0.57
2022-09-10T18:46:51.049Z,2.00
2022-09-10T18:49:21.699Z,1.83
2022-09-10T18:51:50.267Z,2.87
2022-09-10T18:54:19.049Z,1.10
2022-09-10T18:56:48.702Z,0.60
2022-09-10T18:59:20.168Z,1.13
2022-09-10T19:01:49.114Z,2.83
2022-09-10T19:04:20.026Z,1.33
2022-09-10T19:06:50.512Z,1.40
2022-09-10T19:09:19.754Z,1.00
2022-09-10T19:11:48.952Z,1.03
2022-09-10T19:14:19.276Z,1.60
2022-09-10T19:16:48.156Z,1.53
2022-09-10T19:19:18.385Z,0.60
2022-09-10T19:21:47.072Z,1.53
2022-09-10T19:24:17.367Z,1.10
2022-09-10T19:26:46.184Z,1.00
2022-09-10T19:29:16.953Z,3.43
2022-09-10T19:31:46.276Z,1.70
2022-09-10T19:34:15.634Z,4.20
2022-09-10T19:36:44.704Z,0.30
2022-09-10T19:39:14.063Z,3.17
2022-09-10T19:41:45.137Z,1.70
2022-09-10T19:44:14.339Z,2.63
2022-09-10T19:46:43.986Z,2.70
2022-09-10T19:49:12.745Z,2.43
2022-09-10T19:51:42.896Z,3.57
2022-09-10T19:54:12.014Z,0.30
2022-09-10T19:56:41.300Z,1.57
2022-09-10T19:59:11.365Z,0.40
2022-09-10T20:01:40.813Z,1.53
2022-09-10T20:04:10.356Z,2.63
2022-09-10T20:06:38.803Z,0.53
2022-09-10T20:09:08.105Z,0.60
2022-09-10T20:11:36.643Z,1.00
2022-09-10T20:14:07.872Z,2.50
2022-09-10T20:16:38.747Z,1.43
2022-09-10T20:19:07.805Z,0.80
2022-09-10T20:21:39.575Z,1.07
2022-09-10T20:24:08.872Z,3.90
2022-09-10T20:26:39.887Z,1.43
2022-09-10T20:29:09.131Z,0.50
2022-09-10T20:31:41.016Z,1.17
2022-09-10T20:34:10.070Z,0.83
2022-09-10T20:36:39.081Z,0.50
2022-09-10T20:39:07.575Z,4.00
2022-09-10T20:41:37.821Z,0.80
2022-09-10T20:44:06.190Z,2.20
2022-09-10T20:46:35.746Z,0.67
2022-09-10T20:49:05.563Z,1.93
2022-09-10T20:51:34.749Z,0.30
2022-09-10T20:54:03.486Z,0.70
2022-09-10T20:56:31.922Z,2.60
2022-09-10T20:59:01.860Z,3.00
2022-09-10T21:01:32.076Z,1.53
2022-09-10T21:04:04.021Z,0.30
2022-09-10T21:06:34.759Z,0.70
2022-09-10T21:09:03.466Z,0.70
2022-09-10T21:11:32.987Z,0.50
2022-09-10T21:14:02.907Z,0.30
2022-09-10T21:16:31.627Z,18.13
2022-09-10T21:19:01.771Z,2.63
2022-09-10T21:21:33.844Z,0.40
2022-09-10T21:24:07.270Z,0.37
2022-09-10T21:26:37.723Z,0.40
2022-09-10T21:29:07.353Z,0.50
2022-09-10T21:31:36.497Z,1.07
2022-09-10T21:34:05.846Z,1.47
2022-09-10T21:36:37.707Z,0.50
2022-09-10T21:39:09.726Z,0.37
2022-09-10T21:41:39.551Z,0.50
2022-09-10T21:44:10.449Z,0.50
2022-09-10T21:46:40.035Z,0.40
2022-09-10T21:49:11.382Z,2.23
2022-09-10T21:51:39.979Z,5.57
2022-09-10T21:54:13.264Z,3.40
2022-09-10T21:56:44.455Z,0.53
2022-09-10T21:59:14.654Z,2.03
2022-09-10T22:01:44.302Z,1.53
2022-09-10T22:04:13.196Z,0.70
2022-09-10T22:06:44.567Z,0.37
2022-09-10T22:09:17.633Z,0.50
2022-09-10T22:11:47.042Z,0.40
2022-09-10T22:14:16.437Z,1.30
2022-09-10T22:16:45.474Z,0.63
2022-09-10T22:19:15.798Z,0.93
2022-09-10T22:21:44.178Z,1.67
2022-09-10T22:24:14.899Z,8.40
2022-09-10T22:26:44.433Z,3.27
2022-09-10T22:29:15.270Z,0.30
2022-09-10T22:31:46.374Z,0.97
2022-09-10T22:34:15.807Z,0.60
2022-09-10T22:36:45.544Z,2.70
2022-09-10T22:39:16.346Z,2.23
2022-09-10T22:41:45.477Z,1.20
2022-09-10T22:44:14.258Z,2.03
2022-09-10T22:46:43.052Z,0.60
2022-09-10T22:49:11.538Z,2.93
2022-09-10T22:51:41.042Z,1.83
2022-09-10T22:54:10.684Z,1.60
2022-09-10T22:56:40.668Z,3.00
2022-09-10T22:59:12.009Z,1.47
2022-09-10T23:01:40.497Z,3.30
2022-09-10T23:04:13.123Z,1.03
2022-09-10T23:06:41.594Z,0.97
2022-09-10T23:09:10.789Z,1.00
2022-09-10T23:11:40.621Z,1.00
2022-09-10T23:14:10.185Z,0.80
2022-09-10T23:16:39.635Z,0.40
2022-09-10T23:19:08.645Z,1.00
2022-09-10T23:21:40.025Z,1.37
2022-09-10T23:24:12.847Z,1.53
2022-09-10T23:26:42.883Z,0.70
2022-09-10T23:29:11.703Z,1.17
2022-09-10T23:31:41.425Z,0.60
2022-09-10T23:34:11.696Z,0.70
2022-09-10T23:36:41.342Z,0.70
2022-09-10T23:39:10.522Z,0.87
2022-09-10T23:41:39.154Z,5.43
2022-09-10T23:44:09.369Z,1.20
2022-09-10T23:46:40.943Z,1.13
2022-09-10T23:49:09.530Z,4.00
2022-09-10T23:51:38.208Z,0.40
2022-09-10T23:54:08.858Z,4.17
2022-09-10T23:56:37.877Z,0.63
2022-09-10T23:59:06.435Z,0.97
